DON PEDRO RESERVOIR (DNP)

Elevation: 830' · TUOLUMNE R basin · Operator: Turlock Irrigation District


Station comments:

11/04/2014Hourly storage has resumed as of 11/4/2014. It had previously stopped at 11/25/2009.


Provisional data, subject to change.
Query executed Monday at 20:17:30   clock

Select a sensor type for a plot of data.
Note: Reservoir Flows are daily averages.

Earlier

Date RES ELE    STORAGE    RES CHG    TOC STO    ABV TOC    OUTFLOW    INFLOW    PPT INC   
 FEET   AF   AF   AF   AF   CFS   CFS   INCHES  
03/29/2015 713.53 894035 -352 1690000 -- 366 366 0.00
03/30/2015 713.41 893331 -703 1690000 -- 1050 695 0.00
03/31/2015 713.41 893331 -352 1690000 -- 626 626 0.00
04/01/2015 713.22 891925 -1757 1690000 -798075 1207 498 0.00
04/02/2015 712.76 889117 -3859 1690000 -800883 2163 748 0.00
04/03/2015 712.03 883521 -6293 1690000 -- 3104 283 0.00
04/04/2015 711.43 879341 -4873 1690000 -- 2782 674 0.00
04/05/2015 710.66 874482 -5200 1690000 -815518 3365 915 0.00
04/06/2015 710.19 871023 -3804 1690000 -818977 2231 487 0.00
04/07/2015 710.11 870332 -1007 1690000 -819668 1295 947 0.00
04/08/2015 709.84 868263 -2413 1690000 -821737 1719 676 0.00
04/09/2015 709.69 867574 -689 1690000 -822426 1255 907 0.00
04/10/2015 709.69 865509 -2409 1690000 -- 1667 626 0.00
04/11/2015 709.15 863447 -2061 1690000 -- 1755 715 0.00
04/12/2015 709.01 862761 -686 1690000 -- 1127 781 0.00
04/13/2015 709.03 862761 -686 1690000 -827239 782 782 0.00
04/14/2015 709.09 863447 343 1690000 -826553 435 781 0.00
04/15/2015 709.12 863447 -343 1690000 -826553 647 647 0.00
04/16/2015 708.95 862761 -1372 1690000 -827239 1160 814 0.00
04/17/2015 708.73 860704 -2057 1690000 -- 1303 266 0.00
04/18/2015 708.55 860019 -2054 1690000 -- 1067 721 0.00
04/19/2015 708.35 857966 -342 1690000 -832034 1346 310 0.00
04/20/2015 707.99 855917 -2731 1690000 -834083 1706 673 0.00
04/21/2015 707.62 853190 -3067 1690000 -836810 1669 294 0.00
04/22/2015 707.17 850469 -3739 1690000 -- 1928 557 0.00
04/23/2015 706.65 846398 -3053 1690000 -- 2095 42 0.00
04/24/2015 706.24 843692 -3044 1690000 -- 1837 473 0.00
04/25/2015 706.02 842341 -1350 1690000 -- 1563 882 0.00
04/26/2015 705.92 841666 -675 1690000 -848334 1241 900 0.00
04/27/2015 -- -- -- -- -- -- -- --

Later | Latest

Warning! This data is preliminary and subject to revision.

Show DNP Map | Plot DNP Data | 1 Month DNP Data | Real-Time DNP Data | DNP Info